KOLU

Columbus Municipal Airport

Columbus, Nebraska, USA
METAR KOLU 191829Z AUTO 10012G16KT 10SM FEW014 26/21 A2985 RMK AO2
Observed Flight Rules
Sep-19 @ 18:29 UTC (18 minutes ago) Visual Flight Rules
Wind Visibility Clouds
100° at 12 knots
 Gusting to 16 knots
10 miles
  • Few at 1,400' AGL
Temperatures Readings
Current 26°C / 79°F
Dewpoint 21°C / 70°F
Humidity 74%
Altimeter 29.85" Hg
Pressure 1011 hPa
Elevation 440
METAR KOLU 191829Z AUTO 10012G16KT 10SM FEW014 26/21 A2985 RMK AO2
Observed Flight Rules
Sep-19 @ 18:29 UTC
(18 minutes ago)
VFR
Wind Visibility
100° at 12 knots
 Gusting to 16 knots
10 miles
Clouds
  • Few at 1,400' AGL
Temperature Dewpoint
26°C / 79°F 21°C / 70°F
Humidity Altimeter Pressure
74% 29.85" Hg 1011 hPa